Kissimmee Gateway Airport
KISM : now visible

Airfield :











YOU CAN JOIN US ON...

 
LOGIN :

Register | Disclaimer

   EN    FR    IT 

 









Legend :    VFR   Marginal VFR   IFR   Intensive IFR   Very Intensive IFR
Visi :
Ceiling :
>= 8 km
>= 3000ft
5 to 8 km
1000 to 3000 ft
1500m to 5 km
500 to 1000 ft
800 to 1500m
200 to 500 ft
< 800m
< 200 ft
Symbols :   Thunderstorms  Fog  Heavy snow  Heavy precipitations  Wind > 20 kt






- Airport Elevation : 82 ft


KISM - Kissimmee Gateway

CURRENT METAR :
  • 230056Z 05009KT 10SM CLR 19/14 A3012 RMK AO2 SLP200 T01940144 PNO $

EXPIRED METARs :
  • 222356Z 05012KT 10SM CLR 21/14 A3010 RMK AO2 SLP192 6//// T02110144 10272 20211 53011 PNO $
  • 222256Z 10012KT 10SM CLR 24/16 A3008 RMK AO2 SLP186 T02390161 PNO $

TAF KISM
Valid from the 23 at 00:00 until the 24 at 00:00 UTC


222332Z 2300/2324 10012KT P6SM SKC
FM230300 03006KT P6SM SCT250
FM231400 09011KT P6SM SCT040 SCT250
FM231900 10011G17KT P6SM SCT040 SCT250
KZMA FIR / North America



MET'MAP, your aeronautical weather chart ! - Copyright ORBIFLY December 2007 - Disclaimer

ORBIFLY MET'MAP TEAM :

Programming & Development : Alexandra Zaïnal
Concept & original design : Baudouin d'Aumeries
Assistance for programming : Marc-Olivier Méhu
Technical & hardware support : Manuel Goepfert

Contact : metmap@orbifly.com




SOURCES & CREDITS :

   NOAA       Earth
Advisory